createdAt,value
2022-07-28T04:01:30.297Z,14.50
2022-07-28T04:03:58.372Z,14.70
2022-07-28T04:06:26.501Z,14.80
2022-07-28T04:08:54.564Z,14.90
2022-07-28T04:11:23.174Z,14.90
2022-07-28T04:13:51.280Z,15.10
2022-07-28T04:16:19.446Z,15.00
2022-07-28T04:18:51.823Z,15.10
2022-07-28T04:21:19.912Z,15.10
2022-07-28T04:23:47.976Z,15.30
2022-07-28T04:26:17.215Z,15.50
2022-07-28T04:28:45.735Z,15.70
2022-07-28T04:31:14.259Z,15.90
2022-07-28T04:33:43.188Z,16.00
2022-07-28T04:36:12.665Z,16.00
2022-07-28T04:38:40.875Z,16.20
2022-07-28T04:41:08.956Z,16.40
2022-07-28T04:43:38.602Z,16.50
2022-07-28T04:46:06.996Z,16.60
2022-07-28T04:48:35.177Z,16.50
2022-07-28T04:51:03.292Z,16.80
2022-07-28T04:53:32.709Z,16.70
2022-07-28T04:56:00.872Z,16.90
2022-07-28T04:58:30.987Z,16.80
2022-07-28T05:00:59.263Z,17.10
2022-07-28T05:03:28.757Z,17.30
2022-07-28T05:05:59.824Z,17.20
2022-07-28T05:08:27.904Z,17.40
2022-07-28T05:10:57.837Z,17.50
2022-07-28T05:13:31.806Z,17.80
2022-07-28T05:16:02.404Z,17.80
2022-07-28T05:18:30.643Z,17.90
2022-07-28T05:20:58.869Z,17.90
2022-07-28T05:23:26.988Z,17.90
2022-07-28T05:25:55.119Z,18.10
2022-07-28T05:28:25.163Z,18.30
2022-07-28T05:30:54.082Z,18.30
2022-07-28T05:33:22.811Z,18.30
2022-07-28T05:35:55.157Z,18.50
2022-07-28T05:38:23.352Z,18.80
2022-07-28T05:40:51.863Z,18.80
2022-07-28T05:43:21.345Z,18.70
2022-07-28T05:45:51.301Z,19.00
2022-07-28T05:48:20.452Z,19.10
2022-07-28T05:50:50.279Z,19.40
2022-07-28T05:53:19.414Z,19.60
2022-07-28T05:55:59.671Z,19.30
2022-07-28T05:58:30.541Z,18.50
2022-07-28T06:01:03.251Z,19.70
2022-07-28T06:03:38.447Z,20.00
2022-07-28T06:06:16.051Z,19.80
2022-07-28T06:08:47.024Z,20.20
2022-07-28T06:11:18.051Z,20.50
2022-07-28T06:13:52.285Z,20.60
2022-07-28T06:16:23.650Z,20.00
2022-07-28T06:18:52.605Z,20.80
2022-07-28T06:21:24.198Z,21.10
2022-07-28T06:23:52.439Z,21.20
2022-07-28T06:26:23.502Z,21.40
2022-07-28T06:28:52.159Z,20.50
2022-07-28T06:31:21.629Z,20.70
2022-07-28T06:33:49.768Z,20.60
2022-07-28T06:36:17.904Z,21.30
2022-07-28T06:38:46.010Z,21.70
2022-07-28T06:41:14.299Z,21.30
2022-07-28T06:43:42.438Z,22.10
2022-07-28T06:46:10.518Z,20.40
2022-07-28T06:48:41.739Z,21.80
2022-07-28T06:51:09.968Z,22.50
2022-07-28T06:53:38.143Z,22.50
2022-07-28T06:56:06.950Z,22.50
2022-07-28T06:58:35.707Z,22.90
2022-07-28T07:01:07.796Z,23.10
2022-07-28T07:03:36.251Z,22.80
2022-07-28T07:06:05.932Z,22.80
2022-07-28T07:08:34.694Z,22.70
2022-07-28T07:11:03.129Z,22.80
2022-07-28T07:13:32.204Z,22.90
2022-07-28T07:16:00.395Z,21.90
2022-07-28T07:18:28.661Z,21.60
2022-07-28T07:20:58.748Z,21.90
2022-07-28T07:23:28.175Z,22.00
2022-07-28T07:25:56.489Z,22.40
2022-07-28T07:28:24.625Z,22.40
2022-07-28T07:30:52.802Z,22.50
2022-07-28T07:33:20.888Z,22.70
2022-07-28T07:35:49.077Z,22.70
2022-07-28T07:38:17.115Z,22.50
2022-07-28T07:40:46.819Z,22.00
2022-07-28T07:43:14.891Z,21.70
2022-07-28T07:45:43.011Z,22.60
2022-07-28T07:48:11.136Z,22.80
2022-07-28T07:50:39.500Z,22.20
2022-07-28T07:53:07.769Z,22.40
2022-07-28T07:55:37.345Z,23.20
2022-07-28T07:58:07.774Z,22.90
2022-07-28T08:00:36.009Z,22.60
2022-07-28T08:03:04.185Z,22.00
2022-07-28T08:05:39.887Z,22.40
2022-07-28T08:08:08.242Z,21.90
2022-07-28T08:10:38.418Z,23.80
2022-07-28T08:13:09.034Z,24.40
2022-07-28T08:15:37.172Z,23.40
2022-07-28T08:18:05.477Z,24.40
2022-07-28T08:20:33.503Z,24.90
2022-07-28T08:23:01.676Z,23.20
2022-07-28T08:25:29.757Z,24.20
2022-07-28T08:27:57.937Z,24.40
2022-07-28T08:30:32.165Z,24.50
2022-07-28T08:33:02.793Z,25.00
2022-07-28T08:35:34.229Z,25.30
2022-07-28T08:38:04.613Z,25.60
2022-07-28T08:40:33.335Z,24.00
2022-07-28T08:43:14.350Z,23.20
2022-07-28T08:45:48.324Z,23.10
2022-07-28T08:48:19.208Z,22.40
2022-07-28T08:50:50.745Z,23.30
2022-07-28T08:53:21.756Z,24.50
2022-07-28T08:55:50.809Z,24.50
2022-07-28T08:58:19.271Z,24.20
2022-07-28T09:00:49.689Z,23.90
2022-07-28T09:03:18.857Z,24.30
2022-07-28T09:05:47.515Z,23.20
2022-07-28T09:08:19.430Z,23.90
2022-07-28T09:10:47.776Z,25.00
2022-07-28T09:13:16.679Z,25.30
2022-07-28T09:15:46.347Z,25.10
2022-07-28T09:18:18.490Z,25.00
2022-07-28T09:20:47.022Z,25.10
2022-07-28T09:23:42.791Z,24.50
2022-07-28T09:26:12.009Z,25.00
2022-07-28T09:28:53.725Z,25.60
2022-07-28T09:31:24.462Z,25.20
2022-07-28T09:34:01.278Z,25.40
2022-07-28T09:36:31.145Z,25.00
2022-07-28T09:38:59.459Z,25.10
2022-07-28T09:41:27.540Z,25.60
2022-07-28T09:43:56.053Z,25.70
2022-07-28T09:46:26.571Z,26.60
2022-07-28T09:49:01.321Z,26.90
2022-07-28T09:51:31.800Z,26.60
2022-07-28T09:54:11.085Z,26.10
2022-07-28T09:56:41.515Z,26.50
2022-07-28T09:59:09.904Z,25.40
2022-07-28T10:01:54.667Z,24.20
2022-07-28T10:04:36.326Z,24.40
2022-07-28T10:07:09.692Z,24.80
2022-07-28T10:09:39.570Z,24.90
2022-07-28T10:12:24.691Z,23.20
2022-07-28T10:14:55.444Z,24.10
2022-07-28T10:17:31.364Z,23.40
2022-07-28T10:20:02.672Z,23.30
2022-07-28T10:22:39.534Z,23.60
2022-07-28T10:25:13.120Z,23.10
2022-07-28T10:27:43.580Z,24.30
2022-07-28T10:30:14.141Z,24.00
2022-07-28T10:32:45.214Z,24.70
2022-07-28T10:35:17.425Z,25.80
2022-07-28T10:37:53.118Z,26.50
2022-07-28T10:40:27.493Z,27.10
2022-07-28T10:42:57.337Z,25.80
2022-07-28T10:45:41.980Z,27.10
2022-07-28T10:48:15.407Z,26.80
2022-07-28T10:50:45.953Z,26.90
2022-07-28T10:53:30.894Z,27.00
2022-07-28T10:56:06.030Z,27.30
2022-07-28T10:58:47.186Z,28.40
2022-07-28T11:01:52.122Z,28.20
2022-07-28T11:04:55.273Z,26.40
2022-07-28T11:07:24.747Z,27.90
2022-07-28T11:09:54.049Z,27.10
2022-07-28T11:12:46.498Z,27.20
2022-07-28T11:15:35.745Z,27.70
2022-07-28T11:18:10.213Z,26.00
2022-07-28T11:21:07.862Z,26.00
2022-07-28T11:23:46.441Z,27.00
2022-07-28T11:26:41.738Z,28.90
2022-07-28T11:29:21.567Z,30.50
2022-07-28T11:32:04.727Z,32.10
2022-07-28T11:35:14.363Z,31.50
2022-07-28T11:38:22.531Z,31.60
2022-07-28T11:40:53.931Z,30.80
2022-07-28T11:43:43.112Z,31.40
2022-07-28T11:46:33.327Z,32.30
2022-07-28T11:49:26.221Z,34.50
2022-07-28T11:52:20.841Z,35.40
2022-07-28T11:54:58.891Z,34.50
2022-07-28T11:57:30.030Z,33.90
2022-07-28T12:00:02.183Z,33.90
2022-07-28T12:02:33.650Z,33.40
2022-07-28T12:05:14.947Z,35.30
2022-07-28T12:07:49.736Z,37.80
2022-07-28T12:10:53.361Z,37.40
2022-07-28T12:13:28.851Z,41.30
2022-07-28T12:15:57.367Z,41.60
2022-07-28T12:18:25.640Z,44.00
2022-07-28T12:20:54.656Z,44.50
2022-07-28T12:23:39.011Z,46.50
2022-07-28T12:26:31.221Z,46.30
2022-07-28T12:29:01.686Z,46.00
2022-07-28T12:31:33.780Z,45.00
2022-07-28T12:34:02.919Z,41.40
2022-07-28T12:36:31.272Z,38.50
2022-07-28T12:39:00.401Z,38.70
2022-07-28T12:41:33.634Z,41.40
2022-07-28T12:44:06.058Z,40.50
2022-07-28T12:46:34.604Z,39.70
2022-07-28T12:49:03.273Z,38.70
2022-07-28T12:51:33.610Z,38.70
2022-07-28T12:54:02.196Z,38.20
2022-07-28T12:56:30.859Z,40.90
2022-07-28T12:59:07.821Z,39.30
2022-07-28T13:01:51.200Z,43.10
2022-07-28T13:04:41.749Z,44.60
2022-07-28T13:07:13.844Z,46.30
2022-07-28T13:10:00.316Z,46.00
2022-07-28T13:12:31.427Z,49.90
2022-07-28T13:15:04.526Z,45.50
2022-07-28T13:17:55.076Z,46.90
2022-07-28T13:20:24.249Z,49.40
2022-07-28T13:22:53.418Z,43.50
2022-07-28T13:25:22.284Z,45.80
2022-07-28T13:27:54.535Z,49.70
2022-07-28T13:30:25.201Z,52.10
2022-07-28T13:32:54.755Z,53.80
2022-07-28T13:35:22.965Z,52.00
2022-07-28T13:37:51.214Z,48.30
2022-07-28T13:40:19.269Z,42.70
2022-07-28T13:42:53.357Z,42.70
2022-07-28T13:45:30.323Z,40.30
2022-07-28T13:47:58.514Z,41.90
2022-07-28T13:50:27.185Z,47.30
2022-07-28T13:52:55.335Z,51.00
2022-07-28T13:55:23.650Z,50.30
2022-07-28T13:57:55.266Z,51.30
2022-07-28T14:00:26.520Z,47.50
2022-07-28T14:02:54.972Z,48.90
2022-07-28T14:05:23.217Z,50.80
2022-07-28T14:07:51.563Z,49.30
2022-07-28T14:10:19.974Z,48.70
2022-07-28T14:12:55.138Z,49.90
2022-07-28T14:15:23.451Z,47.20
2022-07-28T14:17:52.936Z,44.50
2022-07-28T14:20:21.081Z,46.10
2022-07-28T14:22:49.109Z,45.70
2022-07-28T14:25:19.754Z,44.80
2022-07-28T14:27:50.681Z,47.20
2022-07-28T14:30:20.340Z,49.50
2022-07-28T14:32:48.922Z,49.70
2022-07-28T14:35:18.517Z,52.60
2022-07-28T14:38:35.048Z,52.80
2022-07-28T14:40:39.265Z,54.00
2022-07-28T14:43:09.338Z,54.10
2022-07-28T14:46:00.423Z,54.90
2022-07-28T14:48:26.503Z,54.60
2022-07-28T14:50:57.025Z,55.00
2022-07-28T14:53:28.190Z,55.00
2022-07-28T14:55:56.860Z,53.60
2022-07-28T14:58:25.652Z,52.30
2022-07-28T15:00:54.194Z,52.40
2022-07-28T15:03:22.284Z,54.10
2022-07-28T15:05:50.425Z,54.30
2022-07-28T15:08:19.889Z,53.60
2022-07-28T15:10:53.405Z,52.80
2022-07-28T15:13:21.776Z,53.00
2022-07-28T15:15:50.017Z,52.80
2022-07-28T15:18:18.060Z,53.50
2022-07-28T15:20:46.228Z,54.00
2022-07-28T15:23:14.336Z,54.10
2022-07-28T15:25:46.393Z,53.50
2022-07-28T15:28:17.876Z,53.00
2022-07-28T15:30:51.438Z,49.30
2022-07-28T15:33:20.628Z,47.10
2022-07-28T15:35:58.563Z,46.40
2022-07-28T15:38:31.519Z,45.40
2022-07-28T15:41:01.446Z,46.70
2022-07-28T15:43:30.175Z,48.80
2022-07-28T15:45:58.288Z,48.80
2022-07-28T15:48:26.423Z,50.70
2022-07-28T15:50:54.558Z,51.00
2022-07-28T15:53:22.680Z,50.50
2022-07-28T15:55:51.744Z,50.60
2022-07-28T15:58:22.855Z,52.00
2022-07-28T16:00:51.766Z,52.10
2022-07-28T16:03:20.351Z,53.20
2022-07-28T16:05:50.283Z,53.30
2022-07-28T16:08:22.602Z,52.20
2022-07-28T16:10:54.202Z,53.70
2022-07-28T16:13:35.923Z,53.50
2022-07-28T16:16:08.407Z,53.10
2022-07-28T16:18:37.628Z,51.60
2022-07-28T16:21:06.772Z,52.40
2022-07-28T16:23:36.217Z,52.20
2022-07-28T16:26:07.477Z,51.10
2022-07-28T16:28:37.459Z,51.40
2022-07-28T16:31:05.730Z,51.60
2022-07-28T16:33:34.211Z,51.60
2022-07-28T16:36:02.964Z,51.80
2022-07-28T16:38:31.287Z,50.30
2022-07-28T16:40:59.420Z,50.20
2022-07-28T16:43:27.545Z,49.30
2022-07-28T16:45:57.342Z,48.20
2022-07-28T16:48:25.586Z,48.60
2022-07-28T16:50:53.870Z,48.30
2022-07-28T16:53:21.959Z,47.70
2022-07-28T16:55:50.281Z,47.80
2022-07-28T16:58:19.929Z,47.50
2022-07-28T17:00:48.037Z,46.60
2022-07-28T17:03:17.972Z,46.80
2022-07-28T17:05:46.184Z,47.00
2022-07-28T17:08:14.749Z,46.70
2022-07-28T17:10:42.924Z,45.80
2022-07-28T17:13:12.011Z,45.20
2022-07-28T17:15:41.428Z,45.50
2022-07-28T17:18:09.697Z,45.40
2022-07-28T17:20:42.729Z,45.20
2022-07-28T17:23:11.423Z,44.20
2022-07-28T17:28:28.481Z,41.40
2022-07-28T17:30:56.906Z,40.70
2022-07-28T17:33:25.773Z,40.50
2022-07-28T17:35:56.095Z,40.30
2022-07-28T17:38:30.958Z,39.30
2022-07-28T17:41:03.774Z,38.50
2022-07-28T17:43:32.716Z,38.20
2022-07-28T17:46:01.206Z,38.40
2022-07-28T17:48:31.123Z,38.90
2022-07-28T17:51:00.750Z,38.70
2022-07-28T17:53:28.882Z,38.60
2022-07-28T17:56:01.197Z,38.00
2022-07-28T17:58:32.270Z,37.00
2022-07-28T18:01:10.179Z,35.90
2022-07-28T18:03:59.303Z,35.20
2022-07-28T18:06:33.821Z,33.50
2022-07-28T18:09:06.057Z,33.00
2022-07-28T18:11:36.083Z,31.50
2022-07-28T18:14:23.421Z,31.10
2022-07-28T18:16:51.472Z,30.50
2022-07-28T18:19:19.511Z,30.10
2022-07-28T18:21:48.999Z,29.80
2022-07-28T18:24:18.019Z,29.50
2022-07-28T18:26:46.422Z,28.80
2022-07-28T18:29:14.538Z,28.40
2022-07-28T18:31:46.430Z,27.50
2022-07-28T18:34:15.359Z,27.30
2022-07-28T18:36:43.868Z,26.80
2022-07-28T18:39:13.340Z,26.40
2022-07-28T18:41:46.520Z,26.30
2022-07-28T18:44:16.955Z,26.30
2022-07-28T18:46:45.826Z,25.30
2022-07-28T18:49:14.228Z,25.30
2022-07-28T18:51:45.162Z,25.40
2022-07-28T18:54:19.939Z,25.00
2022-07-28T18:56:50.132Z,24.80
2022-07-28T18:59:18.514Z,24.40
2022-07-28T19:01:46.636Z,24.20
2022-07-28T19:04:15.454Z,24.40
2022-07-28T19:06:43.851Z,24.10
2022-07-28T19:09:11.927Z,24.10
2022-07-28T19:11:46.001Z,24.00
2022-07-28T19:14:15.335Z,23.80
2022-07-28T19:16:44.394Z,23.50
2022-07-28T19:19:12.903Z,23.30
2022-07-28T19:21:43.471Z,23.20
2022-07-28T19:24:12.803Z,22.90
2022-07-28T19:26:44.287Z,23.00
2022-07-28T19:29:12.956Z,22.60
2022-07-28T19:31:41.444Z,22.70
2022-07-28T19:34:10.380Z,22.70
2022-07-28T19:36:41.350Z,22.50
2022-07-28T19:39:09.662Z,22.10
2022-07-28T19:41:37.772Z,21.50
2022-07-28T19:44:07.447Z,21.70
2022-07-28T19:46:35.667Z,21.40
2022-07-28T19:49:07.632Z,21.30
2022-07-28T19:51:35.951Z,21.20
2022-07-28T19:54:05.160Z,21.30
2022-07-28T19:56:33.215Z,21.70
2022-07-28T19:59:02.369Z,21.10
2022-07-28T20:01:32.057Z,21.60
2022-07-28T20:04:04.939Z,21.30
2022-07-28T20:06:33.717Z,21.20
2022-07-28T20:09:03.441Z,21.00
2022-07-28T20:11:32.955Z,20.80
2022-07-28T20:14:01.974Z,20.90
2022-07-28T20:16:31.587Z,20.90
2022-07-28T20:18:59.782Z,20.80
2022-07-28T20:21:27.953Z,20.60
2022-07-28T20:23:57.721Z,20.90
2022-07-28T20:26:26.931Z,20.70
2022-07-28T20:28:58.292Z,20.70
2022-07-28T20:31:26.517Z,20.90
2022-07-28T20:33:56.440Z,20.70
2022-07-28T20:36:29.461Z,20.80
2022-07-28T20:38:58.224Z,20.90
2022-07-28T20:41:26.592Z,20.70
2022-07-28T20:44:26.101Z,20.50
2022-07-28T20:46:43.203Z,20.60
2022-07-28T20:49:12.736Z,20.40
2022-07-28T20:51:45.183Z,20.50
2022-07-28T20:54:19.058Z,20.40
2022-07-28T20:56:47.184Z,20.40
2022-07-28T20:59:15.542Z,20.20
